ADDS METAR Data INFO
IDs: Format: Raw Decoded Include TAF

Data at: 0959 UTC 12 Dec 2017

KBEH 120953Z AUTO 32014G30KT 290V350 1 1/2SM -SN SCT032 BKN044 OVC055 M04/M09 A2991 RMK AO2 PK WND 32031/0911 VIS 1/2V5 SNB04 SLP137 P0000 T10391094
KBEH 120853Z AUTO 32011G28KT 9SM FEW028 SCT038 OVC047 M02/M11 A2989 RMK AO2 PK WND 33028/0850 SNB12E23 SLP129 P0000 60000 T10221106 51029
KBEH 120753Z AUTO 34012G31KT 8SM FEW028 BKN039 OVC060 M02/M08 A2987 RMK AO2 PK WND 32031/0746 SNB00E10 SLP123 P0000 T10171083
KBEH 120653Z AUTO 34010G23KT 300V020 10SM FEW026 OVC037 00/M06 A2983 RMK AO2 PK WND 33033/0621 SNB19E28 SLP107 P0000 T00001061
KBEH 120642Z AUTO 34010G20KT 10SM SCT026 BKN032 OVC042 00/M06 A2982 RMK AO2 PK WND 33033/0621 SNB19E28 P0000 T00001061
KBEH 120629Z AUTO 32012G33KT 300V360 7SM BKN025 BKN034 OVC044 01/M05 A2982 RMK AO2 PK WND 33033/0621 SNB19E28 P0000 T00061050
KBEH 120606Z AUTO 32016G31KT 9SM SCT026 BKN031 OVC041 01/M06 A2980 RMK AO2 PK WND 31031/0605 T00111056
KBEH 120553Z AUTO 32011G24KT 300V360 10SM BKN024 OVC032 01/M04 A2980 RMK AO2 PK WND 33027/0535 SLP098 60008 T00111044 10028 21011 51022
KBEH 120453Z AUTO 33011G20KT 290V360 10SM OVC015 01/M03 A2979 RMK AO2 PK WND 33027/0417 SLP093 T00111028 400281028
KBEH 120415Z AUTO 33013G25KT 290V360 9SM OVC015 01/M02 A2977 RMK AO2 PK WND 31027/0356 T00111022
KBEH 120353Z AUTO 33010G23KT 6SM HZ OVC014 02/M02 A2977 RMK AO2 SLP086 T00171017
KBEH 120303Z AUTO 31011G19KT 5SM HZ SCT007 OVC013 03/M01 A2974 RMK AO2 T00281006
KBEH 120253Z AUTO 30008KT 4SM BR BKN007 OVC013 02/M01 A2973 RMK AO2 SLP075 60008 T00171006 58003
KBEH 120242Z AUTO 00000KT 2SM BR OVC006 M01/M02 A2973 RMK AO2 CIG 004V009 T10061022
KBEH 120216Z AUTO 00000KT 2 1/2SM BR OVC004 M01/M02 A2974 RMK AO2 T10061017
KBEH 120203Z AUTO 00000KT 2SM BR BKN007 OVC011 M01/M02 A2974 RMK AO2 CIG 005V008 T10061017
KBEH 120153Z AUTO 00000KT 1 3/4SM BR BKN009 BKN022 OVC060 M01/M02 A2974 RMK AO2 SNE41 SLP078 P0002 T10111022
KBEH 120147Z AUTO 00000KT 1 1/2SM BR BKN009 BKN024 OVC060 M01/M03 A2973 RMK AO2 SNE41 P0002
KBEH 120125Z AUTO 00000KT 1SM -SN BR VV020 M01/M02 A2973 RMK AO2 P0002 T10111022
KBEH 120113Z AUTO 00000KT 3/4SM -SN BR BKN011 OVC022 M01/M02 A2974 RMK AO2 P0001 T10111022
KBEH 120103Z AUTO 00000KT 1/2SM SN FZFG VV009 M01/M02 A2974 RMK AO2 P0001 T10111017
KBEH 120053Z AUTO 00000KT 1/2SM SN FZFG VV010 M01/M02 A2974 RMK AO2 SLP079 P0006 T10061017
KBEH 120048Z AUTO 00000KT 3/4SM -SN BR VV010 M01/M02 A2974 RMK AO2 P0005
KBEH 120038Z AUTO 00000KT 1/2SM SN FZFG VV010 M01/M02 A2974 RMK AO2 P0005 T10061017
KBEH 120017Z AUTO 16003KT 1/2SM SN FZFG VV009 M01/M03 A2974 RMK AO2 P0002 T10061028
KBEH 120008Z AUTO 00000KT 3/4SM -SN BR VV014 M01/M03 A2974 RMK AO2 P0001 T10061028
KBEH 120000Z AUTO 00000KT 1/2SM SN VV018 M01/M03 A2974 RMK AO2 P0001 T10061033
KBEH 112355Z AUTO 30003KT 1 1/4SM -SN BKN022 OVC037 00/M04 A2974 RMK AO2 P0000 T00001039
KBEH 112353Z AUTO 00000KT 2SM -SN BKN024 OVC035 01/M04 A2974 RMK AO2 SNB40 SLP078 P0000 60000 T00061044 10006 21006 53015
KBEH 112253Z AUTO 13004KT 8SM SCT037 OVC055 01/M04 A2972 RMK AO2 SLP070 T00061044
KBEH 112153Z AUTO 12006KT 6SM HZ OVC060 01/M04 A2969 RMK AO2 SLP062 T00061044
KBEH 112053Z AUTO 13008KT 7SM BKN060 OVC070 00/M05 A2970 RMK AO2 SNE01 SLP064 P0000 60000 T00001050 56038
KBEH 112014Z AUTO 13011KT 6SM HZ SCT027 OVC055 00/M05 A2972 RMK AO2 SNE01 P0000 T00001050
KBEH 111953Z AUTO 13007KT 4SM -SN OVC027 00/M05 A2973 RMK AO2 SNB36 SLP074 P0000 T00001050
KBEH 111948Z AUTO 13008KT 2SM -SN OVC029 00/M05 A2974 RMK AO2 SNB36 P0000
KBEH 111941Z AUTO 14006KT 1 3/4SM -SN BKN033 OVC060 M01/M05 A2974 RMK AO2 SNB36 P0000 T10061050
KBEH 111853Z AUTO 15009KT 8SM BKN075 OVC110 00/M06 A2976 RMK AO2 SLP083 T00001056
KBEH 111753Z AUTO 16008KT 8SM BKN065 OVC120 M01/M06 A2981 RMK AO2 SLP101 60000 T10061061 11006 21028 58046
KBEH 111653Z AUTO 18008G18KT 8SM OVC065 M01/M06 A2986 RMK AO2 SLP118 T10111061
KBEH 111553Z AUTO 17009KT 8SM OVC060 M02/M07 A2992 RMK AO2 SNE01 SLP138 P0000 T10171067
KBEH 111458Z AUTO 18007KT 3SM -SN FEW010 BKN032 OVC060 M03/M06 A2994 RMK AO2 P0000 T10281056
KBEH 111453Z AUTO 19010KT 1 3/4SM -SN BR FEW010 BKN030 OVC060 M03/M05 A2995 RMK AO2 SLP149 P0000 60000 T10281050 58009
KBEH 111417Z AUTO 19009KT 3/4SM -SN OVC027 M03/M06 A2996 RMK AO2 P0000 T10281056
KBEH 111411Z AUTO 19010KT 1 1/2SM -SN BKN029 OVC055 M02/M06 A2996 RMK AO2 P0000 T10221056
KBEH 111353Z AUTO 19006KT 2SM -SN BKN035 OVC060 M02/M06 A2997 RMK AO2 SLP155 P0000 T10221056
KBEH 111310Z AUTO 18006KT 4SM -SN BKN043 OVC060 M02/M06 A2997 RMK AO2 P0000 T10221056
KBEH 111253Z AUTO 18007KT 2 1/2SM -SN OVC043 M02/M06 A2998 RMK AO2 SNB06 SLP159 P0000 T10221061
KBEH 111239Z AUTO 17007KT 4SM -SN SCT026 OVC043 M02/M06 A2998 RMK AO2 SNB06 P0000 T10221061
KBEH 111153Z AUTO 19006KT 10SM OVC026 M01/M07 A3000 RMK AO2 SLP166 T10111067 10000 21022 56007 $
KBEH 111053Z AUTO 17004KT 10SM OVC029 M01/M06 A3000 RMK AO2 SLP166 T10111061 $
KBEH 110953Z AUTO 22003KT 10SM OVC027 M01/M07 A2999 RMK AO2 SLP164 T10111067 $
KBEH 110903Z AUTO 25003KT 10SM OVC029 M01/M07 A3002 RMK AO2 T10111067 $
KBEH 110853Z AUTO 24005KT 10SM OVC030 M02/M07 A3002 RMK AO2 SLP174 T10221067 56006 $
KBEH 110827Z AUTO 29003KT 10SM OVC030 M01/M07 A3002 RMK AO2 T10061072 $
KBEH 110753Z AUTO 30004KT 10SM OVC029 M01/M07 A3003 RMK AO2 SLP177 T10061067 $
KBEH 110744Z AUTO 30004KT 10SM OVC029 M01/M07 A3003 RMK AO2 T10061067 $
KBEH 110653Z AUTO 28004KT 10SM OVC030 M01/M07 A3003 RMK AO2 SLP176 T10061072 $
KBEH 110629Z AUTO VRB03KT 10SM OVC029 00/M07 A3003 RMK AO2 T00001072 $
KBEH 110553Z AUTO 30006KT 10SM OVC030 M01/M07 A3004 RMK AO2 SLP181 T10061072 10000 21006 58001 $
KBEH 110548Z AUTO VRB03KT 10SM OVC030 M01/M07 A3004 RMK AO2 $
KBEH 110500Z AUTO 31006KT 10SM OVC029 M01/M07 A3004 RMK AO2 T10061072 $
KBEH 110453Z AUTO VRB06KT 10SM OVC030 M01/M07 A3005 RMK AO2 SLP182 T10061072 400001056 $
KBEH 110445Z AUTO 31006G14KT 10SM OVC030 M01/M08 A3004 RMK AO2 T10061078 $
KBEH 110353Z AUTO 31007G16KT 10SM OVC028 00/M07 A3004 RMK AO2 SLP182 T00001067 $
KBEH 110253Z AUTO 31010G15KT 10SM BKN024 OVC031 00/M06 A3003 RMK AO2 SLP179 T00001056 51019 $
KBEH 110153Z AUTO 32006KT 10SM OVC024 00/M06 A3002 RMK AO2 SLP174 T00001056 $
KBEH 110053Z AUTO 31010G17KT 10SM OVC023 00/M06 A3000 RMK AO2 SLP169 T00001056 $
KBEH 102353Z AUTO 31011G17KT 10SM BKN022 OVC028 00/M05 A2998 RMK AO2 SLP160 T00001050 10000 21022 53026 $
KBEH 102253Z AUTO 31007KT 290V350 10SM OVC019 00/M04 A2995 RMK AO2 SLP150 T00001044 $